Time;durP1;ratioP1;P1;durP2;ratioP2;P2;SDS_P1;SDS_P2;PMS_P1;PMS_P2;Temp;Humidity;BMP_temperature;BMP_pressure;BME280_temperature;BME280_humidity;BME280_pressure;Samples;Min_cycle;Max_cycle;Signal;HPM_P1;HPM_P2
2021/11/10 00:00:44;;;;;;;14.20;5.60;;;;;;;-4.28;92.12;102137.01;1619370;88;21078;-76
2021/11/10 00:03:13;;;;;;;9.97;5.20;;;;;;;-4.30;92.21;102145.03;1611018;87;21113;-75
2021/11/10 00:05:41;;;;;;;9.93;3.98;;;;;;;-4.33;92.24;102159.02;1614649;88;21148;-75
2021/11/10 00:08:08;;;;;;;11.83;4.97;;;;;;;-4.34;92.57;102163.70;1616898;88;21025;-74
2021/11/10 00:10:35;;;;;;;12.00;5.53;;;;;;;-4.37;92.82;102167.36;1616546;88;21155;-76
2021/11/10 00:13:21;;;;;;;22.77;7.80;;;;;;;-4.40;92.69;102170.66;1616794;88;21053;-75
2021/11/10 00:15:51;;;;;;;26.87;10.47;;;;;;;-4.45;92.71;102169.11;1610273;88;21088;-73
2021/11/10 00:18:19;;;;;;;23.57;7.85;;;;;;;-4.48;92.94;102171.52;1591096;89;21187;-76
2021/11/10 00:20:47;;;;;;;16.83;6.43;;;;;;;-4.49;93.07;102160.72;1591030;89;21591;-77
2021/11/10 00:23:14;;;;;;;17.93;6.60;;;;;;;-4.54;93.10;102163.44;1591085;89;21166;-81
2021/11/10 00:25:41;;;;;;;12.40;5.20;;;;;;;-4.54;93.20;102166.02;1591228;89;21726;-77
2021/11/10 00:28:08;;;;;;;9.97;3.93;;;;;;;-4.55;93.44;102163.38;1591209;90;21084;-76
2021/11/10 00:30:34;;;;;;;5.80;3.30;;;;;;;-4.55;93.71;102166.83;1591082;90;21171;-79
2021/11/10 00:33:01;;;;;;;8.17;3.53;;;;;;;-4.54;94.22;102168.99;1591267;89;21654;-75
2021/11/10 00:35:28;;;;;;;7.07;3.37;;;;;;;-4.53;95.15;102161.38;1591077;90;21153;-77
2021/11/10 00:37:55;;;;;;;12.67;4.30;;;;;;;-4.53;95.45;102163.03;1591285;90;21166;-75
2021/11/10 00:40:22;;;;;;;9.80;4.77;;;;;;;-4.52;95.46;102173.42;1593763;90;21086;-72
2021/11/10 00:42:49;;;;;;;10.43;4.43;;;;;;;-4.54;95.32;102179.28;1605727;89;21098;-71
2021/11/10 00:45:15;;;;;;;10.43;4.23;;;;;;;-4.57;95.23;102182.56;1593705;90;21114;-72
2021/11/10 00:47:42;;;;;;;10.73;3.87;;;;;;;-4.59;95.11;102181.99;1567760;91;21228;-72
2021/11/10 00:50:09;;;;;;;8.93;4.03;;;;;;;-4.62;95.09;102181.42;1591915;90;21068;-73
2021/11/10 00:52:36;;;;;;;9.20;4.20;;;;;;;-4.63;95.38;102180.92;1592215;90;21148;-73
2021/11/10 00:55:04;;;;;;;9.80;4.30;;;;;;;-4.64;95.70;102195.87;1594221;88;21105;-71
2021/11/10 00:57:31;;;;;;;8.40;4.10;;;;;;;-4.66;95.75;102197.46;1594330;89;21125;-70
2021/11/10 00:59:57;;;;;;;13.50;4.50;;;;;;;-4.67;95.71;102188.88;1594495;90;21157;-71
2021/11/10 01:02:24;;;;;;;6.63;3.83;;;;;;;-4.67;95.89;102175.11;1594778;88;21141;-71
2021/11/10 01:04:51;;;;;;;10.10;3.53;;;;;;;-4.68;95.92;102186.20;1601802;88;21129;-70
2021/11/10 01:07:19;;;;;;;13.37;3.77;;;;;;;-4.69;96.04;102189.59;1594549;90;21082;-72
2021/11/10 01:09:47;;;;;;;26.00;8.47;;;;;;;-4.67;96.41;102180.25;1594611;89;21073;-71
2021/11/10 01:12:15;;;;;;;50.57;15.73;;;;;;;-4.67;96.52;102176.39;1594616;90;21235;-72
2021/11/10 01:14:42;;;;;;;33.43;10.83;;;;;;;-4.70;96.47;102175.81;1594547;89;21097;-72
2021/11/10 01:17:09;;;;;;;18.80;6.77;;;;;;;-4.70;96.49;102192.53;1594367;90;21201;-71
2021/11/10 01:19:37;;;;;;;10.40;4.67;;;;;;;-4.69;96.89;102202.03;1594395;88;21093;-73
2021/11/10 01:22:05;;;;;;;9.43;4.83;;;;;;;-4.68;97.39;102207.64;1594645;90;21092;-72
2021/11/10 01:24:32;;;;;;;10.07;4.23;;;;;;;-4.66;97.48;102218.03;1594295;90;21159;-72
2021/11/10 01:26:59;;;;;;;10.27;4.67;;;;;;;-4.67;97.43;102219.72;1594612;90;21122;-72
2021/11/10 01:29:26;;;;;;;17.60;5.10;;;;;;;-4.68;97.34;102208.05;1594139;89;21078;-72
2021/11/10 01:31:54;;;;;;;9.00;4.10;;;;;;;-4.69;97.39;102210.15;1619787;88;21083;-77
2021/11/10 01:34:21;;;;;;;7.83;4.03;;;;;;;-4.69;97.42;102220.44;1622636;87;21565;-77
2021/11/10 01:36:49;;;;;;;8.23;4.40;;;;;;;-4.71;97.45;102211.74;1622283;88;21168;-74
2021/11/10 01:39:15;;;;;;;11.33;4.77;;;;;;;-4.71;97.45;102216.88;1622414;88;21709;-75
2021/11/10 01:41:48;;;;;;;8.33;3.60;;;;;;;-4.71;97.61;102220.74;1622878;88;21109;-73
2021/11/10 01:44:18;;;;;;;10.33;4.50;;;;;;;-4.71;97.81;102213.03;1622572;88;21541;-76
2021/11/10 01:46:46;;;;;;;12.37;4.90;;;;;;;-4.72;97.97;102208.67;1622679;87;21101;-74
2021/11/10 01:49:14;;;;;;;9.33;4.80;;;;;;;-4.74;97.98;102204.74;1622531;87;21961;-75
2021/11/10 01:51:49;;;;;;;12.77;3.87;;;;;;;-4.77;97.84;102207.52;1622805;88;21085;-75
2021/11/10 01:54:20;;;;;;;9.07;4.10;;;;;;;-4.79;97.78;102209.11;1625175;87;21169;-74
2021/11/10 01:56:47;;;;;;;7.17;3.70;;;;;;;-4.81;97.73;102206.84;1605070;89;21597;-73
2021/11/10 01:59:38;;;;;;;8.17;3.20;;;;;;;-4.83;97.73;102208.44;1618866;88;21100;-77
2021/11/10 02:02:25;;;;;;;11.63;4.13;;;;;;;-4.85;97.89;102205.39;1616129;88;21145;-76
2021/11/10 02:04:49;;;;;;;12.23;4.77;;;;;;;-4.86;98.07;102210.02;1598907;88;21184;-77
2021/11/10 02:07:17;;;;;;;12.93;4.57;;;;;;;-4.88;98.21;102210.36;1603196;89;21140;-78
2021/11/10 02:09:44;;;;;;;11.03;4.67;;;;;;;-4.90;98.25;102222.23;1616000;88;21455;-77
2021/11/10 02:12:11;;;;;;;9.80;4.87;;;;;;;-4.92;98.49;102227.67;1618764;88;21643;-77
2021/11/10 02:14:41;;;;;;;8.48;4.62;;;;;;;-4.92;98.92;102227.67;1619053;88;21162;-77
2021/11/10 02:17:15;;;;;;;8.90;4.80;;;;;;;-4.90;99.24;102226.09;1618709;88;21147;-78
2021/11/10 02:19:43;;;;;;;11.03;5.30;;;;;;;-4.89;99.41;102225.27;1618721;88;21105;-76
2021/11/10 02:22:16;;;;;;;9.80;5.50;;;;;;;-4.87;99.60;102228.83;1618916;88;21070;-76
2021/11/10 02:24:44;;;;;;;10.07;4.67;;;;;;;-4.85;99.66;102242.66;1616022;88;21042;-76
2021/11/10 02:27:21;;;;;;;7.67;4.40;;;;;;;-4.80;99.88;102233.05;1587986;90;22304;-76
2021/11/10 02:29:47;;;;;;;10.47;4.90;;;;;;;-4.75;100.00;102232.92;1602165;89;21629;-76
2021/11/10 02:32:15;;;;;;;10.17;4.97;;;;;;;-4.69;100.00;102233.29;1615887;88;21197;-74
2021/11/10 02:34:44;;;;;;;10.33;5.00;;;;;;;-4.63;100.00;102233.63;1605181;88;21572;-75
2021/11/10 02:37:15;;;;;;;10.10;5.03;;;;;;;-4.57;100.00;102236.56;1605803;89;21116;-75
2021/11/10 02:39:43;;;;;;;12.60;5.17;;;;;;;-4.52;100.00;102239.00;1605094;88;21102;-75
2021/11/10 02:42:09;;;;;;;9.23;4.83;;;;;;;-4.45;100.00;102244.98;1618604;88;21598;-76
2021/11/10 02:44:36;;;;;;;8.73;4.67;;;;;;;-4.38;100.00;102245.34;1615929;88;21178;-75
2021/11/10 02:47:04;;;;;;;10.20;4.40;;;;;;;-4.32;100.00;102237.58;1618701;88;21036;-75
2021/11/10 02:49:31;;;;;;;12.13;4.70;;;;;;;-4.27;100.00;102228.84;1615844;88;21116;-74
2021/11/10 02:52:09;;;;;;;9.07;4.67;;;;;;;-4.17;100.00;102238.84;1587883;90;21149;-74
2021/11/10 02:54:43;;;;;;;7.73;4.33;;;;;;;-4.11;100.00;102245.62;1599270;89;21600;-76
2021/11/10 02:57:10;;;;;;;8.83;4.60;;;;;;;-4.03;100.00;102245.64;1597539;89;21069;-76
2021/11/10 02:59:37;;;;;;;10.23;5.10;;;;;;;-3.94;100.00;102240.53;1598160;89;21611;-75
2021/11/10 03:02:05;;;;;;;9.50;4.93;;;;;;;-3.87;100.00;102246.50;1598418;89;21101;-75
2021/11/10 03:04:37;;;;;;;9.57;4.73;;;;;;;-3.82;100.00;102252.79;1626041;85;21152;-73
2021/11/10 03:10:31;;;;;;;11.27;4.77;;;;;;;-3.65;99.98;102255.91;1850739;77;22831;-72
2021/11/10 03:13:02;;;;;;;8.88;4.62;;;;;;;-3.67;99.85;102252.36;1791828;78;21594;-73
2021/11/10 03:15:34;;;;;;;10.40;4.50;;;;;;;-3.61;99.58;102262.12;1822933;78;21118;-72
2021/11/10 03:18:00;;;;;;;9.85;4.87;;;;;;;-3.57;99.45;102265.73;1770597;79;21068;-72
2021/11/10 03:20:27;;;;;;;9.95;5.25;;;;;;;-3.55;99.10;102262.84;1790639;80;21477;-71
2021/11/10 03:22:54;;;;;;;8.65;5.12;;;;;;;-3.57;98.81;102267.03;1790952;80;21567;-71
2021/11/10 03:25:21;;;;;;;12.58;5.10;;;;;;;-3.60;98.47;102269.04;1790648;80;20969;-73
2021/11/10 03:27:48;;;;;;;9.73;4.80;;;;;;;-3.63;98.25;102268.47;1755804;81;21525;-73
2021/11/10 03:30:15;;;;;;;11.68;5.65;;;;;;;-3.67;98.10;102263.95;1771416;81;21556;-74
2021/11/10 03:32:55;;;;;;;16.62;6.65;;;;;;;-3.68;98.03;102266.42;1754647;81;21035;-73
2021/11/10 03:35:24;;;;;;;13.55;6.33;;;;;;;-3.69;98.07;102260.80;1771491;81;21564;-74
2021/11/10 03:37:52;;;;;;;13.93;6.03;;;;;;;-3.69;98.09;102257.82;1755954;81;21097;-73
2021/11/10 03:40:19;;;;;;;7.87;4.65;;;;;;;-3.70;98.11;102258.64;1769821;81;21065;-73
2021/11/10 03:42:48;;;;;;;8.08;4.45;;;;;;;-3.69;98.17;102252.67;1771045;81;21088;-72
2021/11/10 03:45:15;;;;;;;10.25;5.08;;;;;;;-3.66;98.21;102251.95;1755550;81;21056;-72
2021/11/10 03:47:42;;;;;;;12.78;5.60;;;;;;;-3.65;98.23;102252.05;1771353;81;21100;-71
2021/11/10 03:50:10;;;;;;;12.93;5.83;;;;;;;-3.63;98.27;102247.87;1755660;81;21056;-72
2021/11/10 03:52:39;;;;;;;13.95;5.47;;;;;;;-3.62;98.26;102245.77;1770534;81;21509;-73
2021/11/10 03:55:08;;;;;;;8.23;3.92;;;;;;;-3.61;98.24;102253.99;1771198;81;21091;-72
2021/11/10 03:57:36;;;;;;;11.05;3.55;;;;;;;-3.61;98.00;102256.56;1765432;81;21095;-71
2021/11/10 04:00:05;;;;;;;3.85;2.47;;;;;;;-3.62;98.17;102257.35;1757306;81;21327;-73
2021/11/10 04:02:34;;;;;;;6.55;3.17;;;;;;;-3.63;98.39;102272.34;1755978;81;21049;-73
2021/11/10 04:05:00;;;;;;;11.03;5.03;;;;;;;-3.66;98.65;102264.45;1745091;81;21788;-72
2021/11/10 04:07:28;;;;;;;8.88;3.85;;;;;;;-3.67;98.99;102261.38;1724935;83;21060;-74
2021/11/10 04:09:54;;;;;;;7.42;3.52;;;;;;;-3.70;98.84;102262.91;1722004;83;21607;-73
2021/11/10 04:12:21;;;;;;;9.08;4.55;;;;;;;-3.75;98.76;102270.37;1706098;83;21103;-76
2021/11/10 04:14:48;;;;;;;10.95;4.53;;;;;;;-3.78;98.88;102270.19;1686362;85;21102;-73
2021/11/10 04:17:16;;;;;;;7.87;4.37;;;;;;;-3.84;98.67;102265.59;1686186;85;21584;-71
2021/11/10 04:19:45;;;;;;;9.48;4.70;;;;;;;-3.89;98.64;102259.69;1725573;82;21203;-72
2021/11/10 04:22:11;;;;;;;5.75;3.90;;;;;;;-3.93;98.63;102266.78;1725359;83;22191;-71
2021/11/10 04:24:38;;;;;;;9.53;4.70;;;;;;;-3.97;98.69;102264.42;1725312;83;21094;-72
2021/11/10 04:27:07;;;;;;;11.43;5.03;;;;;;;-4.01;98.66;102272.36;1717560;82;21026;-73
2021/11/10 04:29:34;;;;;;;10.72;4.67;;;;;;;-4.04;98.70;102261.90;1766174;81;21129;-72
2021/11/10 04:32:00;;;;;;;9.80;4.90;;;;;;;-4.07;98.69;102269.45;1737597;81;21070;-72
2021/11/10 04:34:27;;;;;;;9.18;4.22;;;;;;;-4.07;98.94;102276.27;1716839;82;21065;-72
2021/11/10 04:36:55;;;;;;;6.17;3.60;;;;;;;-4.10;98.96;102273.13;1765309;81;21092;-73
2021/11/10 04:39:23;;;;;;;9.80;3.85;;;;;;;-4.13;98.91;102266.53;1716346;83;21077;-73
2021/11/10 04:41:50;;;;;;;10.05;4.58;;;;;;;-4.16;98.99;102258.64;1765518;81;21543;-73
2021/11/10 04:44:16;;;;;;;6.73;3.40;;;;;;;-4.20;98.97;102256.69;1716397;83;21047;-72
2021/11/10 04:46:44;;;;;;;9.40;4.03;;;;;;;-4.24;98.98;102262.45;1765555;81;21560;-73
2021/11/10 04:49:10;;;;;;;3.55;1.90;;;;;;;-4.28;99.04;102264.35;1716500;83;21033;-72
2021/11/10 04:51:38;;;;;;;8.40;4.30;;;;;;;-4.31;99.06;102265.47;1767229;80;21045;-74
2021/11/10 04:54:08;;;;;;;6.45;3.05;;;;;;;-4.34;99.02;102267.47;1761987;80;21161;-72
2021/11/10 04:56:36;;;;;;;9.95;4.85;;;;;;;-4.37;99.04;102257.39;1745668;81;27314;-73
2021/11/10 04:59:03;;;;;;;8.18;4.65;;;;;;;-4.40;99.23;102261.08;1702427;83;21094;-74
2021/11/10 05:01:32;;;;;;;9.80;4.53;;;;;;;-4.44;99.18;102260.92;1769378;80;21042;-73
2021/11/10 05:04:00;;;;;;;10.38;5.10;;;;;;;-4.47;99.19;102262.00;1701853;84;21103;-78
2021/11/10 05:06:27;;;;;;;10.23;4.43;;;;;;;-4.50;99.22;102261.84;1706473;83;21497;-77
2021/11/10 05:08:55;;;;;;;11.30;4.83;;;;;;;-4.50;99.36;102269.95;1646595;83;21135;-75
2021/11/10 05:11:24;;;;;;;11.83;4.97;;;;;;;-4.50;99.67;102265.70;1715096;83;21053;-75
2021/11/10 05:13:50;;;;;;;12.00;5.65;;;;;;;-4.49;99.76;102274.29;1754280;80;21049;-74
2021/11/10 05:16:18;;;;;;;11.55;5.65;;;;;;;-4.46;100.00;102278.34;1750921;81;21064;-74
2021/11/10 05:18:45;;;;;;;18.45;5.85;;;;;;;-4.41;100.00;102294.05;1721756;81;21106;-72
2021/11/10 05:21:13;;;;;;;9.40;4.83;;;;;;;-4.38;100.00;102296.79;1759269;80;21394;-75
2021/11/10 05:23:40;;;;;;;9.78;5.58;;;;;;;-4.36;100.00;102300.34;1758426;80;21076;-74
2021/11/10 05:26:06;;;;;;;8.30;4.50;;;;;;;-4.34;100.00;102301.32;1783336;80;21543;-73
2021/11/10 05:28:33;;;;;;;9.67;4.67;;;;;;;-4.32;100.00;102317.73;1783357;80;21544;-74
2021/11/10 05:31:00;;;;;;;10.95;5.25;;;;;;;-4.30;100.00;102311.87;1745643;82;21107;-73
2021/11/10 05:33:27;;;;;;;10.70;5.53;;;;;;;-4.28;100.00;102301.66;1783061;80;21053;-74
2021/11/10 05:35:53;;;;;;;11.80;4.95;;;;;;;-4.25;100.00;102305.72;1783076;80;21088;-74
2021/11/10 05:38:19;;;;;;;15.05;5.20;;;;;;;-4.24;100.00;102313.91;1746124;82;21517;-75
2021/11/10 05:40:46;;;;;;;12.10;5.80;;;;;;;-4.20;100.00;102315.87;1777435;80;21065;-74
2021/11/10 05:43:13;;;;;;;13.30;5.75;;;;;;;-4.16;100.00;102312.68;1756112;80;21144;-75
2021/11/10 05:45:39;;;;;;;14.40;5.87;;;;;;;-4.10;100.00;102323.71;1782395;80;21088;-74
2021/11/10 05:48:06;;;;;;;16.80;6.40;;;;;;;-4.04;100.00;102318.52;1750305;82;21592;-77
2021/11/10 05:50:32;;;;;;;14.30;6.00;;;;;;;-3.95;100.00;102312.14;1743391;82;21117;-76
2021/11/10 05:52:59;;;;;;;13.50;6.17;;;;;;;-3.87;100.00;102312.16;1752450;80;21060;-76
2021/11/10 05:55:26;;;;;;;14.33;6.83;;;;;;;-3.80;100.00;102309.13;1748162;82;21529;-77
2021/11/10 05:57:53;;;;;;;24.07;9.60;;;;;;;-3.70;100.00;102316.98;1784949;80;21005;-77
2021/11/10 06:00:20;;;;;;;18.70;8.80;;;;;;;-3.56;100.00;102326.36;1784608;80;21579;-70
2021/11/10 06:02:48;;;;;;;22.65;7.55;;;;;;;-3.40;100.00;102326.81;1750011;82;21018;-72
2021/11/10 06:05:16;;;;;;;21.62;6.92;;;;;;;-3.23;100.00;102329.89;1784680;80;21075;-73
2021/11/10 06:07:45;;;;;;;11.00;5.87;;;;;;;-3.08;100.00;102326.36;1785254;80;21799;-73
2021/11/10 06:10:13;;;;;;;13.32;6.80;;;;;;;-2.81;100.00;102330.41;1786254;80;21622;-74
2021/11/10 06:12:41;;;;;;;20.65;8.60;;;;;;;-2.39;100.00;102332.58;1787892;79;21127;-73
2021/11/10 06:15:09;;;;;;;24.25;8.00;;;;;;;-1.81;100.00;102321.67;1788146;80;21536;-73
2021/11/10 06:17:36;;;;;;;25.57;9.63;;;;;;;-1.13;99.31;102331.81;1787959;80;21055;-73
2021/11/10 06:20:09;;;;;;;19.00;9.35;;;;;;;-0.35;96.76;102324.42;1787082;80;22342;-74
2021/11/10 06:22:37;;;;;;;34.10;9.58;;;;;;;0.40;93.46;102321.92;1717462;81;21129;-74
2021/11/10 06:25:05;;;;;;;21.37;8.83;;;;;;;1.17;88.87;102318.77;1719137;82;21557;-74
2021/11/10 06:27:33;;;;;;;24.95;9.20;;;;;;;1.97;85.90;102335.85;1752046;81;21065;-74
2021/11/10 06:29:59;;;;;;;23.77;9.88;;;;;;;2.80;82.86;102317.67;1753792;81;21572;-73
2021/11/10 06:32:26;;;;;;;27.98;14.80;;;;;;;3.55;78.83;102316.78;1752696;81;21496;-74
2021/11/10 06:34:53;;;;;;;28.32;16.67;;;;;;;4.36;73.88;102307.50;1753489;81;21031;-74
2021/11/10 06:37:19;;;;;;;30.32;16.35;;;;;;;4.92;71.71;102306.98;1753768;81;21614;-75
2021/11/10 06:39:46;;;;;;;28.90;16.15;;;;;;;5.20;67.94;102305.84;1753719;81;21164;-75
2021/11/10 06:42:12;;;;;;;28.73;15.38;;;;;;;5.18;65.28;102305.36;1748659;81;21116;-75
2021/11/10 06:44:39;;;;;;;26.87;13.50;;;;;;;5.08;62.96;102299.05;1753772;80;21145;-75
2021/11/10 06:47:06;;;;;;;23.62;12.60;;;;;;;4.82;62.45;102301.13;1753065;81;21580;-75
2021/11/10 06:49:34;;;;;;;24.12;11.83;;;;;;;4.47;63.04;102299.05;1754333;80;21064;-75
2021/11/10 06:52:00;;;;;;;26.60;12.18;;;;;;;4.16;64.21;102293.10;1753409;80;21061;-75
2021/11/10 06:54:27;;;;;;;22.87;10.40;;;;;;;3.98;65.27;102297.05;1753700;81;21059;-75
2021/11/10 06:56:53;;;;;;;21.07;9.65;;;;;;;3.84;65.29;102295.79;1753467;81;22130;-75
2021/11/10 06:59:20;;;;;;;19.02;9.63;;;;;;;3.76;65.97;102293.43;1753107;80;21056;-75
2021/11/10 07:01:47;;;;;;;25.50;10.00;;;;;;;3.60;65.99;102295.19;1752663;81;21029;-75
2021/11/10 07:04:16;;;;;;;18.00;8.93;;;;;;;3.45;67.75;102298.24;1753377;80;21064;-77
2021/11/10 07:06:44;;;;;;;19.48;9.03;;;;;;;3.38;67.78;102302.41;1753121;81;21076;-74
2021/11/10 07:09:12;;;;;;;14.28;8.18;;;;;;;3.33;67.82;102296.19;1753333;81;21057;-72
2021/11/10 07:11:38;;;;;;;15.20;7.05;;;;;;;3.22;68.38;102300.22;1777611;80;21009;-74
2021/11/10 07:14:07;;;;;;;16.07;8.00;;;;;;;3.09;69.69;102300.31;1779269;80;21101;-73
2021/11/10 07:16:34;;;;;;;16.80;8.08;;;;;;;3.00;70.94;102304.83;1779254;80;21029;-73
2021/11/10 07:19:01;;;;;;;15.23;8.05;;;;;;;2.95;69.90;102310.33;1779093;80;21045;-75
2021/11/10 07:21:28;;;;;;;16.57;8.80;;;;;;;2.90;70.25;102309.31;1779348;80;21374;-74
2021/11/10 07:23:54;;;;;;;16.37;8.53;;;;;;;2.88;70.56;102307.09;1779005;80;21076;-74
2021/11/10 07:26:21;;;;;;;13.72;8.15;;;;;;;2.93;70.47;102298.98;1778859;80;21126;-75
2021/11/10 07:28:47;;;;;;;15.45;8.43;;;;;;;3.11;70.37;102303.42;1779503;80;21001;-73
2021/11/10 07:31:14;;;;;;;18.65;7.65;;;;;;;3.46;70.28;102292.21;1778904;80;21594;-75
2021/11/10 07:33:40;;;;;;;19.02;10.15;;;;;;;3.88;69.00;102297.64;1778881;80;22189;-74
2021/11/10 07:36:09;;;;;;;19.45;8.33;;;;;;;4.31;67.83;102297.81;1779108;80;21060;-75
2021/11/10 07:38:41;;;;;;;17.37;9.40;;;;;;;4.88;66.64;102291.22;1778945;80;21615;-73
2021/11/10 07:41:12;;;;;;;15.63;8.33;;;;;;;5.65;64.55;102284.02;1779125;80;21048;-77
2021/11/10 07:43:38;;;;;;;;;;;;;;;6.41;59.67;102275.68;1781695;80;21092;-74
2021/11/10 07:46:12;;;;;;;31.33;12.63;;;;;;;6.84;58.51;102278.89;1779553;80;21800;-76
2021/11/10 07:48:34;;;;;;;35.68;14.43;;;;;;;7.33;57.53;102280.77;1781131;80;21135;-75
2021/11/10 07:51:00;;;;;;;19.55;8.73;;;;;;;7.96;54.91;102281.38;1787061;80;21064;-75
2021/11/10 07:53:27;;;;;;;15.35;8.28;;;;;;;8.45;52.97;102266.44;1785994;80;21528;-77
2021/11/10 07:55:54;;;;;;;13.25;7.50;;;;;;;8.98;50.98;102260.55;1784922;80;21041;-75
2021/11/10 07:58:20;;;;;;;18.32;7.08;;;;;;;9.59;50.03;102251.05;1785149;80;21127;-73
2021/11/10 08:00:47;;;;;;;20.00;7.17;;;;;;;10.28;46.68;102261.16;1781686;80;21884;-75
2021/11/10 08:03:14;;;;;;;16.45;7.30;;;;;;;10.47;45.47;102264.63;1778702;80;21056;-74
2021/11/10 08:05:41;;;;;;;13.75;7.08;;;;;;;10.46;43.76;102259.35;1778574;80;21032;-76
2021/11/10 08:08:08;;;;;;;17.98;7.75;;;;;;;10.73;43.59;102265.43;1779502;80;21068;-75
2021/11/10 08:10:35;;;;;;;17.55;7.62;;;;;;;11.11;43.24;102270.52;1774769;80;21133;-74
2021/11/10 08:13:02;;;;;;;15.75;7.15;;;;;;;11.39;40.03;102259.39;1702675;83;21101;-75
2021/11/10 08:15:29;;;;;;;16.20;7.53;;;;;;;11.32;39.13;102265.59;1741854;82;21014;-74
2021/11/10 08:17:55;;;;;;;21.23;8.68;;;;;;;11.42;39.73;102267.72;1721175;82;21651;-77
2021/11/10 08:20:22;;;;;;;11.73;5.40;;;;;;;11.77;39.07;102271.42;1710613;83;21069;-75
2021/11/10 08:22:48;;;;;;;7.35;4.65;;;;;;;12.16;37.86;102263.63;1707242;82;21109;-73
2021/11/10 08:25:17;;;;;;;8.63;4.92;;;;;;;12.54;36.39;102264.14;1750119;80;21090;-75
2021/11/10 08:27:45;;;;;;;7.40;4.40;;;;;;;12.66;34.67;102266.64;1764621;80;21041;-74
2021/11/10 08:30:17;;;;;;;8.33;4.37;;;;;;;13.02;33.85;102276.31;1763605;80;21002;-75
2021/11/10 08:32:46;;;;;;;6.25;3.80;;;;;;;13.36;34.02;102283.83;1750276;81;21078;-74
2021/11/10 08:35:18;;;;;;;9.78;4.00;;;;;;;13.77;33.20;102275.72;1777885;80;21082;-74
2021/11/10 08:37:48;;;;;;;8.18;4.60;;;;;;;14.25;32.44;102277.11;1776956;78;21346;-74
2021/11/10 08:40:14;;;;;;;8.00;4.58;;;;;;;14.66;31.89;102278.14;1780285;80;21045;-73
2021/11/10 08:42:41;;;;;;;5.40;3.70;;;;;;;14.88;31.89;102279.45;1778778;80;21053;-75
2021/11/10 08:45:11;;;;;;;6.08;3.77;;;;;;;15.23;30.91;102272.51;1779426;80;21021;-74
2021/11/10 08:47:42;;;;;;;9.10;3.95;;;;;;;15.57;31.99;102269.05;1779380;80;21897;-74
2021/11/10 08:50:09;;;;;;;6.05;3.50;;;;;;;15.35;30.09;102265.18;1750455;80;21089;-74
2021/11/10 08:52:36;;;;;;;6.05;3.98;;;;;;;15.21;29.52;102265.03;1718150;80;21306;-75
2021/11/10 08:55:07;;;;;;;5.97;3.62;;;;;;;15.33;28.90;102257.70;1702526;83;21137;-77
2021/11/10 08:57:38;;;;;;;6.80;4.00;;;;;;;15.40;29.03;102256.65;1702950;84;21030;-74
2021/11/10 09:00:06;;;;;;;9.20;3.80;;;;;;;15.36;28.49;102248.33;1739455;82;21134;-75
2021/11/10 09:02:35;;;;;;;10.75;3.90;;;;;;;15.40;28.36;102246.89;1741659;82;21104;-75
2021/11/10 09:05:05;;;;;;;6.58;3.70;;;;;;;15.66;28.29;102246.25;1741585;82;20978;-75
2021/11/10 09:07:31;;;;;;;5.47;3.65;;;;;;;16.02;27.75;102260.90;1741737;82;21058;-75
2021/11/10 09:09:59;;;;;;;6.12;3.65;;;;;;;16.42;27.33;102253.64;1742278;82;21506;-74
2021/11/10 09:12:26;;;;;;;8.08;3.77;;;;;;;16.40;25.37;102247.48;1749980;82;22218;-74
2021/11/10 09:14:53;;;;;;;8.20;3.50;;;;;;;16.26;26.27;102243.87;1750275;82;21080;-76
2021/11/10 09:17:19;;;;;;;8.50;3.55;;;;;;;16.20;25.93;102234.77;1787531;80;21115;-75
2021/11/10 09:19:45;;;;;;;14.60;4.53;;;;;;;16.19;25.63;102239.64;1787893;80;21115;-75
2021/11/10 09:22:12;;;;;;;8.55;4.67;;;;;;;16.18;26.07;102232.59;1787526;80;21008;-76
2021/11/10 09:24:39;;;;;;;10.15;4.35;;;;;;;16.21;26.18;102233.83;1787829;80;22044;-75
2021/11/10 09:27:06;;;;;;;9.75;5.87;;;;;;;15.83;25.48;102227.30;1787746;80;21044;-77
2021/11/10 09:29:33;;;;;;;15.20;7.85;;;;;;;15.45;25.69;102224.22;1787461;80;21036;-75
2021/11/10 09:32:00;;;;;;;7.40;4.90;;;;;;;14.57;26.60;102227.94;1787684;80;21515;-76
2021/11/10 09:34:26;;;;;;;13.70;5.85;;;;;;;14.36;26.98;102227.42;1787622;80;21052;-75
2021/11/10 09:36:53;;;;;;;8.58;4.90;;;;;;;14.41;27.22;102226.01;1787574;80;21117;-75
2021/11/10 09:39:22;;;;;;;13.93;6.67;;;;;;;14.62;27.08;102224.73;1786806;80;21551;-75
2021/11/10 09:41:50;;;;;;;9.20;6.42;;;;;;;14.89;27.18;102217.98;1787632;80;21025;-76
2021/11/10 09:44:19;;;;;;;14.33;7.30;;;;;;;15.19;27.23;102206.26;1787621;80;21496;-77
2021/11/10 09:46:46;;;;;;;15.10;7.00;;;;;;;15.45;26.78;102207.83;1787577;80;21056;-75
2021/11/10 09:49:13;;;;;;;11.30;6.53;;;;;;;15.13;26.17;102212.56;1787609;80;21159;-75
2021/11/10 09:51:42;;;;;;;14.55;7.10;;;;;;;14.26;25.91;102220.11;1787457;80;21014;-74
2021/11/10 09:54:09;;;;;;;14.10;7.70;;;;;;;13.64;27.25;102220.33;1756822;80;21088;-75
2021/11/10 09:56:37;;;;;;;13.75;7.75;;;;;;;13.15;27.92;102224.99;1786831;80;21083;-74
2021/11/10 09:59:04;;;;;;;15.10;8.85;;;;;;;12.54;28.76;102227.14;1779174;80;21547;-76
2021/11/10 10:01:33;;;;;;;17.25;8.35;;;;;;;12.20;29.21;102219.58;1755465;81;21326;-74
2021/11/10 10:04:00;;;;;;;14.75;8.68;;;;;;;11.98;30.60;102225.95;1760821;80;21093;-75
2021/11/10 10:06:29;;;;;;;15.20;9.00;;;;;;;11.23;30.60;102236.63;1769143;81;21057;-75
2021/11/10 10:08:56;;;;;;;16.32;9.70;;;;;;;10.64;30.69;102231.62;1770245;81;21017;-76
2021/11/10 10:11:22;;;;;;;20.17;8.90;;;;;;;10.18;31.76;102234.36;1771639;81;21084;-75
2021/11/10 10:13:49;;;;;;;16.90;8.83;;;;;;;9.83;33.97;102247.12;1770874;81;21113;-74
2021/11/10 10:16:21;;;;;;;17.25;8.63;;;;;;;9.39;37.84;102250.59;1760721;81;21808;-74
2021/11/10 10:18:49;;;;;;;16.95;7.87;;;;;;;9.01;35.77;102246.55;1727072;82;21049;-75
2021/11/10 10:21:18;;;;;;;17.92;8.80;;;;;;;8.69;35.06;102249.92;1730755;81;21085;-75
2021/11/10 10:23:48;;;;;;;18.90;8.55;;;;;;;8.31;35.29;102243.14;1722711;82;21069;-75
2021/11/10 10:26:18;;;;;;;16.48;8.68;;;;;;;8.07;35.27;102240.77;1749476;82;21069;-76
2021/11/10 10:28:51;;;;;;;15.75;8.78;;;;;;;8.14;35.86;102239.97;1749976;81;21069;-76
2021/11/10 10:31:25;;;;;;;13.85;7.87;;;;;;;8.77;35.71;102242.09;1730621;82;21528;-76
2021/11/10 10:33:57;;;;;;;16.17;8.08;;;;;;;9.27;33.74;102241.38;1759008;81;20995;-75
2021/11/10 10:36:28;;;;;;;18.23;8.25;;;;;;;9.36;33.76;102230.88;1764628;81;21684;-76
2021/11/10 10:39:15;;;;;;;14.15;7.67;;;;;;;9.51;33.96;102218.61;1717865;83;21502;-75
2021/11/10 10:41:48;;;;;;;12.58;7.10;;;;;;;9.53;33.36;102217.73;1748429;81;22189;-76
2021/11/10 10:44:21;;;;;;;16.95;7.90;;;;;;;9.40;33.04;102218.15;1752615;81;21057;-76
2021/11/10 10:46:59;;;;;;;15.60;7.87;;;;;;;9.40;33.46;102217.28;1764710;81;21041;-74
2021/11/10 10:49:32;;;;;;;20.35;9.13;;;;;;;9.49;35.59;102217.73;1755670;80;21120;-73
2021/11/10 10:52:13;;;;;;;18.40;10.23;;;;;;;9.63;33.18;102213.34;1769234;81;21563;-74
2021/11/10 10:54:41;;;;;;;23.62;10.43;;;;;;;9.74;32.29;102214.23;1749456;80;21002;-75
2021/11/10 10:57:10;;;;;;;25.00;11.90;;;;;;;9.48;32.36;102224.75;1740663;81;22219;-76
2021/11/10 10:59:37;;;;;;;21.73;12.28;;;;;;;9.25;33.15;102227.34;1748563;81;21109;-75
2021/11/10 11:02:04;;;;;;;23.73;12.50;;;;;;;9.22;33.98;102229.95;1741710;81;21105;-79
2021/11/10 11:04:32;;;;;;;29.57;12.58;;;;;;;9.50;34.16;102224.73;1740751;81;21989;-80
2021/11/10 11:07:07;;;;;;;31.27;11.75;;;;;;;9.93;33.92;102222.98;1749318;81;21324;-74
2021/11/10 11:09:42;;;;;;;25.92;12.50;;;;;;;10.34;35.04;102218.56;1756047;81;21088;-78
2021/11/10 11:12:26;;;;;;;27.80;13.53;;;;;;;10.73;32.48;102213.59;1771862;80;21028;-82
2021/11/10 11:15:14;;;;;;;26.70;14.95;;;;;;;11.14;31.61;102203.28;1773602;80;21033;-83
2021/11/10 11:17:46;;;;;;;34.30;15.72;;;;;;;11.21;30.27;102193.11;1774279;80;21618;-79
2021/11/10 11:20:16;;;;;;;30.90;15.35;;;;;;;11.08;29.83;102189.66;1774457;80;21029;-79
2021/11/10 11:22:49;;;;;;;31.23;15.43;;;;;;;11.04;29.76;102181.37;1776421;80;21074;-82
2021/11/10 11:25:29;;;;;;;30.40;17.10;;;;;;;11.24;30.31;102179.03;1773309;80;21072;-81
2021/11/10 11:28:01;;;;;;;36.45;17.45;;;;;;;11.51;30.11;102177.50;1775601;80;21013;-81